createdAt,value
2017-12-08T00:02:22.366Z,8.50
2017-12-08T00:04:50.150Z,8.50
2017-12-08T00:07:18.303Z,8.50
2017-12-08T00:09:47.002Z,8.60
2017-12-08T00:12:15.719Z,8.60
2017-12-08T00:14:43.378Z,8.60
2017-12-08T00:17:13.043Z,8.70
2017-12-08T00:19:42.204Z,8.80
2017-12-08T00:22:11.814Z,8.80
2017-12-08T00:24:39.407Z,8.80
2017-12-08T00:29:41.789Z,8.80
2017-12-08T00:32:09.483Z,8.70
2017-12-08T00:34:41.823Z,8.80
2017-12-08T00:37:09.549Z,8.80
2017-12-08T00:39:42.845Z,8.70
2017-12-08T00:42:10.453Z,8.70
2017-12-08T00:44:39.138Z,8.60
2017-12-08T00:47:07.490Z,8.50
2017-12-08T00:49:35.130Z,8.50
2017-12-08T00:52:02.698Z,8.50
2017-12-08T00:54:30.375Z,8.50
2017-12-08T00:56:57.986Z,8.40
2017-12-08T00:59:27.581Z,8.40
2017-12-08T01:01:56.866Z,8.30
2017-12-08T01:04:25.299Z,8.30
2017-12-08T01:06:53.324Z,8.30
2017-12-08T01:09:21.041Z,8.20
2017-12-08T01:11:49.123Z,8.20
2017-12-08T01:14:17.374Z,8.20
2017-12-08T01:16:46.227Z,8.20
2017-12-08T01:19:13.847Z,8.20
2017-12-08T01:21:42.373Z,8.20
2017-12-08T01:24:12.612Z,8.20
2017-12-08T01:26:40.181Z,8.10
2017-12-08T01:29:10.353Z,8.10
2017-12-08T01:31:38.828Z,8.20
2017-12-08T01:34:07.970Z,8.10
2017-12-08T01:36:35.754Z,8.20
2017-12-08T01:39:05.363Z,8.20
2017-12-08T01:41:33.501Z,8.20
2017-12-08T01:44:01.738Z,8.20
2017-12-08T01:46:29.352Z,8.20
2017-12-08T01:48:56.917Z,8.20
2017-12-08T01:51:24.480Z,8.20
2017-12-08T01:53:52.842Z,8.20
2017-12-08T01:56:20.388Z,8.20
2017-12-08T01:58:48.928Z,8.20
2017-12-08T02:01:16.483Z,8.20
2017-12-08T02:03:44.061Z,8.30
2017-12-08T02:06:11.602Z,8.30
2017-12-08T02:08:39.175Z,8.30
2017-12-08T02:11:07.548Z,8.30
2017-12-08T02:13:35.113Z,8.30
2017-12-08T02:16:02.658Z,8.20
2017-12-08T02:18:30.245Z,8.20
2017-12-08T02:20:58.584Z,8.20
2017-12-08T02:23:27.010Z,8.20
2017-12-08T02:25:54.642Z,8.30
2017-12-08T02:28:25.305Z,8.30
2017-12-08T02:30:53.939Z,8.20
2017-12-08T02:33:23.023Z,8.20
2017-12-08T02:35:50.679Z,8.10
2017-12-08T02:38:19.076Z,8.10
2017-12-08T02:40:48.296Z,8.10
2017-12-08T02:43:15.857Z,8.10
2017-12-08T02:45:44.457Z,7.90
2017-12-08T02:48:12.151Z,7.90
2017-12-08T02:50:40.758Z,8.00
2017-12-08T02:53:10.782Z,7.90
2017-12-08T02:55:39.542Z,7.90
2017-12-08T02:58:07.107Z,7.90
2017-12-08T03:00:34.649Z,7.90
2017-12-08T03:03:02.242Z,7.90
2017-12-08T03:05:29.778Z,7.80
2017-12-08T03:07:57.445Z,7.80
2017-12-08T03:10:25.021Z,7.60
2017-12-08T03:12:52.695Z,7.50
2017-12-08T03:15:20.244Z,7.50
2017-12-08T03:17:47.803Z,7.50
2017-12-08T03:20:15.392Z,7.50
2017-12-08T03:22:43.730Z,7.50
2017-12-08T03:25:11.303Z,7.40
2017-12-08T03:27:40.852Z,7.50
2017-12-08T03:30:08.397Z,7.40
2017-12-08T03:32:36.736Z,7.50
2017-12-08T03:35:04.276Z,7.40
2017-12-08T03:37:31.827Z,7.40
2017-12-08T03:39:59.393Z,7.40
2017-12-08T03:42:27.917Z,7.40
2017-12-08T03:44:56.250Z,7.30
2017-12-08T03:47:23.794Z,7.30
2017-12-08T03:49:51.368Z,7.20
2017-12-08T03:52:18.904Z,7.20
2017-12-08T03:54:46.502Z,7.10
2017-12-08T03:57:14.089Z,7.20
2017-12-08T03:59:41.680Z,7.20
2017-12-08T04:02:09.237Z,7.20
2017-12-08T04:04:36.796Z,7.20
2017-12-08T04:07:04.346Z,7.30
2017-12-08T04:09:31.914Z,7.30
2017-12-08T04:11:59.491Z,7.30
2017-12-08T04:14:27.074Z,7.40
2017-12-08T04:16:54.660Z,7.40
2017-12-08T04:19:22.248Z,7.40
2017-12-08T04:21:49.880Z,7.50
2017-12-08T04:24:17.467Z,7.50
2017-12-08T04:26:45.149Z,7.50
2017-12-08T04:29:12.926Z,7.50
2017-12-08T04:31:41.836Z,7.50
2017-12-08T04:34:09.556Z,7.50
2017-12-08T04:36:37.515Z,7.60
2017-12-08T04:39:05.401Z,7.60
2017-12-08T04:41:33.086Z,7.50
2017-12-08T04:44:01.360Z,7.50
2017-12-08T04:46:29.826Z,7.50
2017-12-08T04:48:58.492Z,7.60
2017-12-08T04:51:27.059Z,7.50
2017-12-08T04:53:55.468Z,7.60
2017-12-08T04:56:23.977Z,7.50
2017-12-08T04:58:52.891Z,7.50
2017-12-08T05:01:20.561Z,7.50
2017-12-08T05:03:58.576Z,7.50
2017-12-08T05:06:26.412Z,7.50
2017-12-08T05:08:54.096Z,7.50
2017-12-08T05:11:22.395Z,7.50
2017-12-08T05:13:50.066Z,7.50
2017-12-08T05:16:18.514Z,7.50
2017-12-08T05:18:47.137Z,7.50
2017-12-08T05:21:15.739Z,7.60
2017-12-08T05:23:43.323Z,7.60
2017-12-08T05:26:12.378Z,7.60
2017-12-08T05:28:41.942Z,7.60
2017-12-08T05:31:10.264Z,7.60
2017-12-08T05:33:38.112Z,7.50
2017-12-08T05:36:05.758Z,7.60
2017-12-08T05:38:34.066Z,7.60
2017-12-08T05:41:01.631Z,7.60
2017-12-08T05:43:29.215Z,7.60
2017-12-08T05:45:58.080Z,7.60
2017-12-08T05:48:25.737Z,7.60
2017-12-08T05:50:53.274Z,7.60
2017-12-08T05:53:20.908Z,7.60
2017-12-08T05:55:48.467Z,7.60
2017-12-08T05:58:16.073Z,7.60
2017-12-08T06:00:44.119Z,7.70
2017-12-08T06:03:11.723Z,7.60
2017-12-08T06:05:39.335Z,7.60
2017-12-08T06:08:10.136Z,7.60
2017-12-08T06:10:37.750Z,7.60
2017-12-08T06:13:05.331Z,7.60
2017-12-08T06:15:33.951Z,7.60
2017-12-08T06:18:02.391Z,7.50
2017-12-08T06:20:29.940Z,7.50
2017-12-08T06:22:57.513Z,7.10
2017-12-08T06:25:25.119Z,6.20
2017-12-08T06:27:53.477Z,5.60
2017-12-08T06:30:21.794Z,5.30
2017-12-08T06:32:49.392Z,5.30
2017-12-08T06:35:16.957Z,5.20
2017-12-08T06:37:46.306Z,4.80
2017-12-08T06:40:13.912Z,4.80
2017-12-08T06:42:41.606Z,4.80
2017-12-08T06:45:09.200Z,4.70
2017-12-08T06:47:36.864Z,4.60
2017-12-08T06:50:04.635Z,4.70
2017-12-08T06:52:35.300Z,4.70
2017-12-08T06:55:03.674Z,4.70
2017-12-08T06:57:31.322Z,4.70
2017-12-08T06:59:58.967Z,4.60
2017-12-08T07:02:26.663Z,4.60
2017-12-08T07:04:55.013Z,4.60
2017-12-08T07:07:22.588Z,4.60
2017-12-08T07:09:50.165Z,4.50
2017-12-08T07:12:18.652Z,4.40
2017-12-08T07:14:47.071Z,4.50
2017-12-08T07:17:16.950Z,4.50
2017-12-08T07:19:45.289Z,4.50
2017-12-08T07:22:12.933Z,4.50
2017-12-08T07:24:41.521Z,4.50
2017-12-08T07:27:10.171Z,4.60
2017-12-08T07:29:37.762Z,4.60
2017-12-08T07:32:05.384Z,4.60
2017-12-08T07:34:33.756Z,4.60
2017-12-08T07:37:03.097Z,4.60
2017-12-08T07:39:31.652Z,4.60
2017-12-08T07:42:00.538Z,4.60
2017-12-08T07:44:28.124Z,4.60
2017-12-08T07:46:55.729Z,4.50
2017-12-08T07:49:24.057Z,4.40
2017-12-08T07:51:51.629Z,4.40
2017-12-08T07:54:19.208Z,4.40
2017-12-08T07:56:46.799Z,4.50
2017-12-08T07:59:15.135Z,4.20
2017-12-08T08:01:42.745Z,4.20
2017-12-08T08:04:11.049Z,4.50
2017-12-08T08:06:38.653Z,4.40
2017-12-08T08:09:07.150Z,4.70
2017-12-08T08:11:34.794Z,4.70
2017-12-08T08:14:02.399Z,4.70
2017-12-08T08:16:30.013Z,4.70
2017-12-08T08:18:57.673Z,4.70
2017-12-08T08:21:26.122Z,4.70
2017-12-08T08:23:53.697Z,4.60
2017-12-08T08:26:21.292Z,4.60
2017-12-08T08:28:48.929Z,4.50
2017-12-08T08:31:16.505Z,4.50
2017-12-08T08:33:44.833Z,4.50
2017-12-08T08:36:12.403Z,4.50
2017-12-08T08:38:39.935Z,4.40
2017-12-08T08:41:07.530Z,4.00
2017-12-08T08:43:35.071Z,4.20
2017-12-08T08:54:23.180Z,4.50
2017-12-08T08:56:50.746Z,4.60
2017-12-08T08:59:18.283Z,4.40
2017-12-08T09:01:45.896Z,4.30
2017-12-08T09:04:14.216Z,4.20
2017-12-08T09:06:42.018Z,4.20
2017-12-08T09:09:10.325Z,4.40
2017-12-08T09:11:38.132Z,4.40
2017-12-08T09:14:05.685Z,4.20
2017-12-08T09:16:33.262Z,4.30
2017-12-08T09:19:00.807Z,4.40
2017-12-08T09:21:28.370Z,4.70
2017-12-08T09:23:55.925Z,4.80
2017-12-08T09:26:24.476Z,4.80
2017-12-08T09:28:52.012Z,4.90
2017-12-08T09:31:20.364Z,4.90
2017-12-08T09:33:47.894Z,5.00
2017-12-08T09:36:15.457Z,5.00
2017-12-08T09:38:42.993Z,5.10
2017-12-08T09:41:10.552Z,5.10
2017-12-08T09:43:39.068Z,5.20
2017-12-08T09:48:40.470Z,5.10
2017-12-08T09:51:10.736Z,5.50
2017-12-08T09:53:38.301Z,5.40
2017-12-08T09:56:05.963Z,5.70
2017-12-08T09:58:33.540Z,5.90
2017-12-08T10:01:01.113Z,6.20
2017-12-08T10:03:28.651Z,6.30
2017-12-08T10:05:57.202Z,6.30
2017-12-08T10:08:24.744Z,6.30
2017-12-08T10:10:52.351Z,6.00
2017-12-08T10:13:19.888Z,6.00
2017-12-08T10:15:47.469Z,5.80
2017-12-08T10:18:15.000Z,5.80
2017-12-08T10:20:42.597Z,5.70
2017-12-08T10:23:10.140Z,5.80
2017-12-08T10:25:37.696Z,5.90
2017-12-08T10:28:06.190Z,5.90
2017-12-08T10:30:33.760Z,6.00
2017-12-08T10:33:01.322Z,6.10
2017-12-08T10:35:30.514Z,5.80
2017-12-08T10:37:58.044Z,5.90
2017-12-08T10:40:27.609Z,5.90
2017-12-08T10:42:56.527Z,6.00
2017-12-08T10:45:24.099Z,6.10
2017-12-08T10:47:51.628Z,6.10
2017-12-08T10:50:19.853Z,6.00
2017-12-08T10:52:48.363Z,6.10
2017-12-08T10:55:16.694Z,6.00
2017-12-08T10:57:44.221Z,5.90
2017-12-08T11:00:13.735Z,6.00
2017-12-08T11:02:42.239Z,6.00
2017-12-08T11:05:09.803Z,6.00
2017-12-08T11:07:37.361Z,5.90
2017-12-08T11:10:04.924Z,6.20
2017-12-08T11:12:32.462Z,6.10
2017-12-08T11:15:00.066Z,6.20
2017-12-08T11:17:27.603Z,6.10
2017-12-08T11:19:55.992Z,6.00
2017-12-08T11:22:23.531Z,5.90
2017-12-08T11:24:51.118Z,6.00
2017-12-08T11:27:18.696Z,6.10
2017-12-08T11:29:48.217Z,6.10
2017-12-08T11:32:15.784Z,6.00
2017-12-08T11:34:43.352Z,6.10
2017-12-08T11:37:10.897Z,6.20
2017-12-08T11:39:38.455Z,6.40
2017-12-08T11:42:06.153Z,6.40
2017-12-08T11:44:33.713Z,6.40
2017-12-08T11:47:01.913Z,6.60
2017-12-08T11:49:30.246Z,6.90
2017-12-08T11:51:57.789Z,6.90
2017-12-08T11:54:25.350Z,7.10
2017-12-08T11:59:26.628Z,6.90
2017-12-08T12:01:54.164Z,6.90
2017-12-08T12:04:22.747Z,6.80
2017-12-08T12:06:51.244Z,6.90
2017-12-08T12:09:18.808Z,6.70
2017-12-08T12:11:48.239Z,6.60
2017-12-08T12:14:16.367Z,6.50
2017-12-08T12:16:43.896Z,6.50
2017-12-08T12:19:12.193Z,6.40
2017-12-08T12:21:39.762Z,6.30
2017-12-08T12:24:07.291Z,6.30
2017-12-08T12:26:37.560Z,4.90
2017-12-08T12:29:05.099Z,4.90
2017-12-08T12:31:32.668Z,4.20
2017-12-08T12:34:01.153Z,3.80
2017-12-08T12:36:29.731Z,3.60
2017-12-08T12:38:57.265Z,3.30
2017-12-08T12:41:24.821Z,3.20
2017-12-08T12:43:52.366Z,3.00
2017-12-08T12:46:20.691Z,3.10
2017-12-08T12:48:49.158Z,3.10
2017-12-08T12:51:16.734Z,3.10
2017-12-08T12:53:44.273Z,3.10
2017-12-08T12:56:12.646Z,3.10
2017-12-08T12:58:40.179Z,3.10
2017-12-08T13:01:09.406Z,3.30
2017-12-08T13:03:36.943Z,3.30
2017-12-08T13:06:04.524Z,3.40
2017-12-08T13:08:32.947Z,3.40
2017-12-08T13:11:01.553Z,3.40
2017-12-08T13:13:29.560Z,3.40
2017-12-08T13:15:57.361Z,3.30
2017-12-08T13:18:24.913Z,3.40
2017-12-08T13:20:52.513Z,3.50
2017-12-08T13:23:20.052Z,3.50
2017-12-08T13:25:48.212Z,3.60
2017-12-08T13:28:15.744Z,3.60
2017-12-08T13:30:43.307Z,3.70
2017-12-08T13:33:10.833Z,3.60
2017-12-08T13:35:38.412Z,3.70
2017-12-08T13:38:05.960Z,3.70
2017-12-08T13:40:35.964Z,3.70
2017-12-08T13:43:03.570Z,3.80
2017-12-08T13:45:31.537Z,3.90
2017-12-08T13:48:00.067Z,4.10
2017-12-08T13:50:28.748Z,4.10
2017-12-08T13:52:56.800Z,4.10
2017-12-08T13:55:36.335Z,4.10
2017-12-08T13:58:04.869Z,4.10
2017-12-08T14:00:33.427Z,4.10
2017-12-08T14:03:01.393Z,4.10
2017-12-08T14:05:29.618Z,4.10
2017-12-08T14:07:58.345Z,4.10
2017-12-08T14:10:27.013Z,4.20
2017-12-08T14:12:55.361Z,4.20
2017-12-08T14:15:24.454Z,4.20
2017-12-08T14:17:52.710Z,4.20
2017-12-08T14:20:20.756Z,4.30
2017-12-08T14:22:48.986Z,4.20
2017-12-08T14:25:18.369Z,4.20
2017-12-08T14:27:45.938Z,4.20
2017-12-08T14:30:15.517Z,4.20
2017-12-08T14:32:43.138Z,4.20
2017-12-08T14:35:11.698Z,4.20
2017-12-08T14:37:39.380Z,4.10
2017-12-08T14:40:08.144Z,4.10
2017-12-08T14:42:36.872Z,4.00
2017-12-08T14:45:04.572Z,4.00
2017-12-08T14:47:32.542Z,3.90
2017-12-08T14:50:05.545Z,3.70
2017-12-08T14:52:33.244Z,3.70
2017-12-08T14:55:01.372Z,3.80
2017-12-08T14:57:29.000Z,3.90
2017-12-08T14:59:58.159Z,3.90
2017-12-08T15:02:26.433Z,3.90
2017-12-08T15:04:54.979Z,4.00
2017-12-08T15:07:24.047Z,3.90
2017-12-08T15:09:52.010Z,3.90
2017-12-08T15:12:20.727Z,3.90
2017-12-08T15:14:49.347Z,3.80
2017-12-08T15:17:18.550Z,3.70
2017-12-08T15:19:48.392Z,3.80
2017-12-08T15:22:15.995Z,3.90
2017-12-08T15:24:43.542Z,4.00
2017-12-08T15:27:11.117Z,3.80
2017-12-08T15:29:39.921Z,3.70
2017-12-08T15:32:08.287Z,3.70
2017-12-08T15:34:36.005Z,3.70
2017-12-08T15:37:03.909Z,3.60
2017-12-08T15:39:33.116Z,3.70
2017-12-08T15:42:00.729Z,3.60
2017-12-08T15:44:28.341Z,3.60
2017-12-08T15:46:55.935Z,3.60
2017-12-08T15:49:23.513Z,3.60
2017-12-08T15:51:52.020Z,3.50
2017-12-08T15:54:19.620Z,3.40
2017-12-08T15:56:47.238Z,3.40
2017-12-08T15:59:14.823Z,3.40
2017-12-08T16:01:42.351Z,3.40
2017-12-08T16:04:10.747Z,3.20
2017-12-08T16:06:38.319Z,3.20
2017-12-08T16:09:05.891Z,3.10
2017-12-08T16:11:34.234Z,3.00
2017-12-08T16:14:01.803Z,3.00
2017-12-08T16:16:30.115Z,2.90
2017-12-08T16:18:58.501Z,2.80
2017-12-08T16:21:26.093Z,2.80
2017-12-08T16:23:53.671Z,2.80
2017-12-08T16:26:21.253Z,2.70
2017-12-08T16:28:48.827Z,2.70
2017-12-08T16:31:17.185Z,2.60
2017-12-08T16:33:44.746Z,2.60
2017-12-08T16:36:12.308Z,2.70
2017-12-08T16:38:41.574Z,2.60
2017-12-08T16:41:10.166Z,2.60
2017-12-08T16:43:37.699Z,2.60
2017-12-08T16:46:05.228Z,2.60
2017-12-08T16:48:32.827Z,2.60
2017-12-08T16:51:00.392Z,2.60
2017-12-08T16:53:28.912Z,2.50
2017-12-08T16:55:57.801Z,2.60
2017-12-08T16:58:26.147Z,2.60
2017-12-08T17:00:53.740Z,2.60
2017-12-08T17:03:22.146Z,2.70
2017-12-08T17:05:49.681Z,2.60
2017-12-08T17:08:19.014Z,2.70
2017-12-08T17:10:46.562Z,2.70
2017-12-08T17:13:14.123Z,2.80
2017-12-08T17:15:41.661Z,2.90
2017-12-08T17:18:10.007Z,3.10
2017-12-08T17:20:37.616Z,3.10
2017-12-08T17:23:05.139Z,3.20
2017-12-08T17:25:32.703Z,3.10
2017-12-08T17:28:01.047Z,3.20
2017-12-08T17:30:30.542Z,3.20
2017-12-08T17:32:58.110Z,3.30
2017-12-08T17:35:25.712Z,3.40
2017-12-08T17:37:54.030Z,3.40
2017-12-08T17:40:21.579Z,3.40
2017-12-08T17:42:49.136Z,3.50
2017-12-08T17:45:16.707Z,3.50
2017-12-08T17:47:44.253Z,3.40
2017-12-08T17:50:11.808Z,3.40
2017-12-08T17:52:39.386Z,3.40
2017-12-08T17:55:06.979Z,3.40
2017-12-08T17:57:34.715Z,3.30
2017-12-08T18:00:02.288Z,3.40
2017-12-08T18:02:29.929Z,3.40
2017-12-08T18:04:57.616Z,3.40
2017-12-08T18:07:26.178Z,3.40
2017-12-08T18:09:53.717Z,3.40
2017-12-08T18:12:22.269Z,3.50
2017-12-08T18:14:50.661Z,3.50
2017-12-08T18:17:18.442Z,3.40
2017-12-08T18:19:45.995Z,3.50
2017-12-08T18:22:14.039Z,3.50
2017-12-08T18:24:41.880Z,3.50
2017-12-08T18:27:09.936Z,3.50
2017-12-08T18:29:37.573Z,3.50
2017-12-08T18:32:13.842Z,3.50
2017-12-08T18:34:43.071Z,3.50
2017-12-08T18:37:10.619Z,3.60
2017-12-08T18:39:40.380Z,3.60
2017-12-08T18:42:10.621Z,3.50
2017-12-08T18:44:38.219Z,3.40
2017-12-08T18:47:05.837Z,3.40
2017-12-08T18:49:33.420Z,3.20
2017-12-08T18:54:33.146Z,3.10
2017-12-08T18:57:03.289Z,3.10
2017-12-08T18:59:31.855Z,3.10
2017-12-08T19:02:00.469Z,3.00
2017-12-08T19:04:28.145Z,3.00
2017-12-08T19:06:55.794Z,3.00
2017-12-08T19:09:24.410Z,3.00
2017-12-08T19:11:52.012Z,3.00
2017-12-08T19:14:19.551Z,3.00
2017-12-08T19:16:47.110Z,3.10
2017-12-08T19:19:14.639Z,3.10
2017-12-08T19:21:43.178Z,3.20
2017-12-08T19:24:10.886Z,3.00
2017-12-08T19:26:38.431Z,2.80
2017-12-08T19:29:06.016Z,2.80
2017-12-08T19:31:33.641Z,2.80
2017-12-08T19:34:01.223Z,2.80
2017-12-08T19:36:28.897Z,2.90
2017-12-08T19:38:56.558Z,3.00
2017-12-08T19:41:24.608Z,3.00
2017-12-08T19:43:53.174Z,2.90
2017-12-08T19:46:23.065Z,2.80
2017-12-08T19:48:51.868Z,2.80
2017-12-08T19:51:25.034Z,2.80
2017-12-08T19:54:02.756Z,2.80
2017-12-08T19:56:32.005Z,2.70
2017-12-08T20:01:45.249Z,2.70
2017-12-08T20:04:14.765Z,2.60
2017-12-08T20:06:43.377Z,2.60
2017-12-08T20:09:10.904Z,2.60
2017-12-08T20:11:39.142Z,2.60
2017-12-08T20:14:08.436Z,2.60
2017-12-08T20:16:37.083Z,2.60
2017-12-08T20:19:06.049Z,2.60
2017-12-08T20:21:34.499Z,2.60
2017-12-08T20:24:03.208Z,2.70
2017-12-08T20:26:31.786Z,2.70
2017-12-08T20:28:59.799Z,2.80
2017-12-08T20:34:12.034Z,2.90
2017-12-08T20:36:44.830Z,3.00
2017-12-08T20:39:12.864Z,3.10
2017-12-08T20:41:41.119Z,3.20
2017-12-08T20:44:09.867Z,3.00
2017-12-08T20:46:38.902Z,2.90
2017-12-08T20:49:07.100Z,2.90
2017-12-08T20:51:35.686Z,2.80
2017-12-08T20:54:14.481Z,2.80
2017-12-08T20:56:42.636Z,2.80
2017-12-08T20:59:11.385Z,2.70
2017-12-08T21:01:39.704Z,2.60
2017-12-08T21:04:07.424Z,2.70
2017-12-08T21:06:36.855Z,2.80
2017-12-08T21:09:05.311Z,2.90
2017-12-08T21:11:34.288Z,2.90
2017-12-08T21:14:03.125Z,2.90
2017-12-08T21:16:33.284Z,2.80
2017-12-08T21:19:03.190Z,3.00
2017-12-08T21:21:31.682Z,3.00
2017-12-08T21:24:01.430Z,3.00
2017-12-08T21:26:30.415Z,3.00
2017-12-08T21:28:59.074Z,3.00
2017-12-08T21:31:28.458Z,3.00
2017-12-08T21:33:57.080Z,3.00
2017-12-08T21:36:25.719Z,3.00
2017-12-08T21:38:53.808Z,3.00
2017-12-08T21:41:23.322Z,3.00
2017-12-08T21:43:52.076Z,3.10
2017-12-08T21:46:21.668Z,3.10
2017-12-08T21:48:56.321Z,3.10
2017-12-08T21:54:30.803Z,3.10
2017-12-08T21:57:03.971Z,3.10
2017-12-08T21:59:34.396Z,2.90
2017-12-08T22:02:03.435Z,2.70
2017-12-08T22:04:32.017Z,2.70
2017-12-08T22:07:00.671Z,2.70
2017-12-08T22:09:29.633Z,2.70
2017-12-08T22:11:58.072Z,2.80
2017-12-08T22:14:28.133Z,2.90
2017-12-08T22:16:56.663Z,3.00
2017-12-08T22:19:24.462Z,3.00
2017-12-08T22:21:54.046Z,2.80
2017-12-08T22:24:24.744Z,2.80
2017-12-08T22:26:54.560Z,2.70
2017-12-08T22:29:32.352Z,2.70
2017-12-08T22:32:03.213Z,2.70
2017-12-08T22:34:34.060Z,2.70
2017-12-08T22:37:02.639Z,2.70
2017-12-08T22:39:33.695Z,2.70
2017-12-08T22:42:01.822Z,2.70
2017-12-08T22:44:32.333Z,2.70
2017-12-08T22:47:00.996Z,2.60
2017-12-08T22:49:28.774Z,2.60
2017-12-08T22:51:59.924Z,2.50
2017-12-08T22:54:28.819Z,2.40
2017-12-08T22:57:11.048Z,2.40
2017-12-08T22:59:39.047Z,2.40
2017-12-08T23:04:44.651Z,2.20
2017-12-08T23:07:14.775Z,2.20
2017-12-08T23:09:44.264Z,2.40
2017-12-08T23:12:12.389Z,2.40
2017-12-08T23:14:39.961Z,2.50
2017-12-08T23:17:08.141Z,2.50
2017-12-08T23:19:36.673Z,2.60
2017-12-08T23:22:08.143Z,2.60
2017-12-08T23:24:36.581Z,2.60
2017-12-08T23:27:05.248Z,2.60
2017-12-08T23:29:34.321Z,2.60
2017-12-08T23:32:02.524Z,2.60
2017-12-08T23:34:30.558Z,2.70
2017-12-08T23:36:59.330Z,2.50
2017-12-08T23:39:35.716Z,2.50
2017-12-08T23:42:03.759Z,2.40
2017-12-08T23:44:32.639Z,2.40
2017-12-08T23:47:00.819Z,2.50
2017-12-08T23:49:28.717Z,2.60
2017-12-08T23:51:57.510Z,2.70
2017-12-08T23:54:25.992Z,2.80
2017-12-08T23:56:55.237Z,2.80
2017-12-08T23:59:23.197Z,2.90
